sensor_id;sensor_type;location;lat;lon;timestamp;temperature;humidity
48936;DHT22;34745;52.276;10.528;2023-02-01T00:00:33;5.50;1.00
48936;DHT22;34745;52.276;10.528;2023-02-01T00:03:01;5.50;1.00
48936;DHT22;34745;52.276;10.528;2023-02-01T00:05:28;5.50;1.00
48936;DHT22;34745;52.276;10.528;2023-02-01T00:07:55;5.50;1.00
48936;DHT22;34745;52.276;10.528;2023-02-01T00:10:22;5.50;1.00
48936;DHT22;34745;52.276;10.528;2023-02-01T00:12:51;5.50;1.00
48936;DHT22;34745;52.276;10.528;2023-02-01T00:15:19;5.40;1.00
48936;DHT22;34745;52.276;10.528;2023-02-01T00:17:47;5.40;1.00
48936;DHT22;34745;52.276;10.528;2023-02-01T00:20:14;5.40;1.00
48936;DHT22;34745;52.276;10.528;2023-02-01T00:22:41;5.40;1.00
48936;DHT22;34745;52.276;10.528;2023-02-01T00:25:09;5.40;1.00
48936;DHT22;34745;52.276;10.528;2023-02-01T00:27:36;5.40;1.00
48936;DHT22;34745;52.276;10.528;2023-02-01T00:30:06;5.40;1.00
48936;DHT22;34745;52.276;10.528;2023-02-01T00:32:33;5.40;1.00
48936;DHT22;34745;52.276;10.528;2023-02-01T00:35:00;5.40;1.00
48936;DHT22;34745;52.276;10.528;2023-02-01T00:37:27;5.40;1.00
48936;DHT22;34745;52.276;10.528;2023-02-01T00:39:55;5.40;1.00
48936;DHT22;34745;52.276;10.528;2023-02-01T00:42:22;5.40;1.00
48936;DHT22;34745;52.276;10.528;2023-02-01T00:44:49;5.40;1.00
48936;DHT22;34745;52.276;10.528;2023-02-01T00:47:17;5.40;1.00
48936;DHT22;34745;52.276;10.528;2023-02-01T00:49:46;5.40;1.00
48936;DHT22;34745;52.276;10.528;2023-02-01T00:52:13;5.40;1.00
48936;DHT22;34745;52.276;10.528;2023-02-01T00:54:40;5.40;1.00
48936;DHT22;34745;52.276;10.528;2023-02-01T00:57:07;5.40;1.00
48936;DHT22;34745;52.276;10.528;2023-02-01T00:59:34;5.40;1.00
48936;DHT22;34745;52.276;10.528;2023-02-01T01:02:01;5.40;1.00
48936;DHT22;34745;52.276;10.528;2023-02-01T01:04:30;5.40;1.00
48936;DHT22;34745;52.276;10.528;2023-02-01T01:06:57;5.40;1.00
48936;DHT22;34745;52.276;10.528;2023-02-01T01:09:25;5.30;1.00
48936;DHT22;34745;52.276;10.528;2023-02-01T01:11:51;5.30;1.00
48936;DHT22;34745;52.276;10.528;2023-02-01T01:14:19;5.30;1.00
48936;DHT22;34745;52.276;10.528;2023-02-01T01:16:46;5.20;1.00
48936;DHT22;34745;52.276;10.528;2023-02-01T01:19:14;5.30;1.00
48936;DHT22;34745;52.276;10.528;2023-02-01T01:21:42;5.30;1.00
48936;DHT22;34745;52.276;10.528;2023-02-01T01:24:09;5.20;1.00
48936;DHT22;34745;52.276;10.528;2023-02-01T01:26:36;5.20;1.00
48936;DHT22;34745;52.276;10.528;2023-02-01T01:29:04;5.20;1.00
48936;DHT22;34745;52.276;10.528;2023-02-01T01:31:31;5.20;1.00
48936;DHT22;34745;52.276;10.528;2023-02-01T01:33:59;5.20;1.00
48936;DHT22;34745;52.276;10.528;2023-02-01T01:36:27;5.20;1.00
48936;DHT22;34745;52.276;10.528;2023-02-01T01:38:55;5.20;1.00
48936;DHT22;34745;52.276;10.528;2023-02-01T01:41:25;5.20;1.00
48936;DHT22;34745;52.276;10.528;2023-02-01T01:43:55;5.20;1.00
48936;DHT22;34745;52.276;10.528;2023-02-01T01:46:24;5.20;1.00
48936;DHT22;34745;52.276;10.528;2023-02-01T01:48:57;5.30;1.00
48936;DHT22;34745;52.276;10.528;2023-02-01T01:51:26;5.30;1.00
48936;DHT22;34745;52.276;10.528;2023-02-01T01:54:00;5.30;1.00
48936;DHT22;34745;52.276;10.528;2023-02-01T01:56:30;5.30;1.00
48936;DHT22;34745;52.276;10.528;2023-02-01T01:58:58;5.30;1.00
48936;DHT22;34745;52.276;10.528;2023-02-01T02:01:25;5.30;1.00
48936;DHT22;34745;52.276;10.528;2023-02-01T02:03:53;5.20;1.00
48936;DHT22;34745;52.276;10.528;2023-02-01T02:06:30;5.20;1.00
48936;DHT22;34745;52.276;10.528;2023-02-01T02:09:01;5.20;1.00
48936;DHT22;34745;52.276;10.528;2023-02-01T02:11:32;5.10;1.00
48936;DHT22;34745;52.276;10.528;2023-02-01T02:14:00;5.10;1.00
48936;DHT22;34745;52.276;10.528;2023-02-01T02:16:39;5.10;1.00
48936;DHT22;34745;52.276;10.528;2023-02-01T02:19:32;5.10;1.00
48936;DHT22;34745;52.276;10.528;2023-02-01T02:22:25;5.10;1.00
48936;DHT22;34745;52.276;10.528;2023-02-01T02:25:23;5.10;1.00
48936;DHT22;34745;52.276;10.528;2023-02-01T02:27:59;5.10;1.00
48936;DHT22;34745;52.276;10.528;2023-02-01T02:30:51;5.10;1.00
48936;DHT22;34745;52.276;10.528;2023-02-01T02:33:46;5.10;1.00
48936;DHT22;34745;52.276;10.528;2023-02-01T02:36:19;5.10;1.00
48936;DHT22;34745;52.276;10.528;2023-02-01T02:38:55;5.10;1.00
48936;DHT22;34745;52.276;10.528;2023-02-01T02:41:30;5.10;1.00
48936;DHT22;34745;52.276;10.528;2023-02-01T02:44:23;5.10;1.00
48936;DHT22;34745;52.276;10.528;2023-02-01T02:47:18;5.10;1.00
48936;DHT22;34745;52.276;10.528;2023-02-01T02:49:58;5.10;1.00
48936;DHT22;34745;52.276;10.528;2023-02-01T02:52:53;5.10;1.00
48936;DHT22;34745;52.276;10.528;2023-02-01T02:55:43;5.10;1.00
48936;DHT22;34745;52.276;10.528;2023-02-01T02:58:11;5.10;1.00
48936;DHT22;34745;52.276;10.528;2023-02-01T03:00:58;5.10;1.00
48936;DHT22;34745;52.276;10.528;2023-02-01T03:03:44;5.00;1.00
48936;DHT22;34745;52.276;10.528;2023-02-01T03:06:32;5.10;1.00
48936;DHT22;34745;52.276;10.528;2023-02-01T03:09:04;5.10;1.00
48936;DHT22;34745;52.276;10.528;2023-02-01T03:11:36;5.10;1.00
48936;DHT22;34745;52.276;10.528;2023-02-01T03:14:23;5.10;1.00
48936;DHT22;34745;52.276;10.528;2023-02-01T03:16:57;5.10;1.00
48936;DHT22;34745;52.276;10.528;2023-02-01T03:19:29;5.10;1.00
48936;DHT22;34745;52.276;10.528;2023-02-01T03:22:02;5.10;1.00
48936;DHT22;34745;52.276;10.528;2023-02-01T03:24:34;5.10;1.00
48936;DHT22;34745;52.276;10.528;2023-02-01T03:27:07;5.10;1.00
48936;DHT22;34745;52.276;10.528;2023-02-01T03:29:39;5.10;1.00
48936;DHT22;34745;52.276;10.528;2023-02-01T03:32:08;5.10;1.00
48936;DHT22;34745;52.276;10.528;2023-02-01T03:34:36;5.10;1.00
48936;DHT22;34745;52.276;10.528;2023-02-01T03:37:08;5.10;1.00
48936;DHT22;34745;52.276;10.528;2023-02-01T03:39:39;5.10;1.00
48936;DHT22;34745;52.276;10.528;2023-02-01T03:42:12;5.10;1.00
48936;DHT22;34745;52.276;10.528;2023-02-01T03:44:44;5.20;1.00
48936;DHT22;34745;52.276;10.528;2023-02-01T03:47:16;5.20;1.00
48936;DHT22;34745;52.276;10.528;2023-02-01T03:49:49;5.10;1.00
48936;DHT22;34745;52.276;10.528;2023-02-01T03:52:21;5.20;1.00
48936;DHT22;34745;52.276;10.528;2023-02-01T03:54:50;5.20;1.00
48936;DHT22;34745;52.276;10.528;2023-02-01T03:57:22;5.20;1.00
48936;DHT22;34745;52.276;10.528;2023-02-01T03:59:50;5.20;1.00
48936;DHT22;34745;52.276;10.528;2023-02-01T04:02:18;5.20;1.00
48936;DHT22;34745;52.276;10.528;2023-02-01T04:04:45;5.20;1.00
48936;DHT22;34745;52.276;10.528;2023-02-01T04:07:12;5.20;1.00
48936;DHT22;34745;52.276;10.528;2023-02-01T04:09:41;5.20;3.50
48936;DHT22;34745;52.276;10.528;2023-02-01T04:12:08;5.20;5.80
48936;DHT22;34745;52.276;10.528;2023-02-01T04:14:35;5.20;13.30
48936;DHT22;34745;52.276;10.528;2023-02-01T04:17:02;5.20;20.60
48936;DHT22;34745;52.276;10.528;2023-02-01T04:19:30;5.10;37.00
48936;DHT22;34745;52.276;10.528;2023-02-01T04:21:57;5.10;48.60
48936;DHT22;34745;52.276;10.528;2023-02-01T04:24:24;5.10;50.10
48936;DHT22;34745;52.276;10.528;2023-02-01T04:26:52;5.10;56.50
48936;DHT22;34745;52.276;10.528;2023-02-01T04:29:20;5.10;62.90
48936;DHT22;34745;52.276;10.528;2023-02-01T04:31:47;5.10;83.50
48936;DHT22;34745;52.276;10.528;2023-02-01T04:34:14;5.10;80.00
48936;DHT22;34745;52.276;10.528;2023-02-01T04:36:41;5.10;71.10
48936;DHT22;34745;52.276;10.528;2023-02-01T04:39:12;5.30;80.20
48936;DHT22;34745;52.276;10.528;2023-02-01T04:41:39;5.10;77.30
48936;DHT22;34745;52.276;10.528;2023-02-01T04:44:09;5.20;75.10
48936;DHT22;34745;52.276;10.528;2023-02-01T04:46:39;5.20;74.40
48936;DHT22;34745;52.276;10.528;2023-02-01T04:49:08;5.10;77.90
48936;DHT22;34745;52.276;10.528;2023-02-01T04:51:35;5.20;84.10
48936;DHT22;34745;52.276;10.528;2023-02-01T04:54:02;5.10;86.10
48936;DHT22;34745;52.276;10.528;2023-02-01T04:56:30;5.10;94.80
48936;DHT22;34745;52.276;10.528;2023-02-01T04:58:57;5.10;96.60
48936;DHT22;34745;52.276;10.528;2023-02-01T05:01:25;5.10;98.20
48936;DHT22;34745;52.276;10.528;2023-02-01T05:03:52;5.10;99.90
48936;DHT22;34745;52.276;10.528;2023-02-01T05:06:19;5.00;99.90
48936;DHT22;34745;52.276;10.528;2023-02-01T05:08:46;5.00;99.90
48936;DHT22;34745;52.276;10.528;2023-02-01T05:11:14;4.90;99.90
48936;DHT22;34745;52.276;10.528;2023-02-01T05:14:00;5.00;99.90
48936;DHT22;34745;52.276;10.528;2023-02-01T05:16:29;5.00;99.90
48936;DHT22;34745;52.276;10.528;2023-02-01T05:18:56;5.10;99.90
48936;DHT22;34745;52.276;10.528;2023-02-01T05:21:24;5.20;99.90
48936;DHT22;34745;52.276;10.528;2023-02-01T05:23:51;5.20;92.80
48936;DHT22;34745;52.276;10.528;2023-02-01T05:26:36;5.20;88.10
48936;DHT22;34745;52.276;10.528;2023-02-01T05:29:05;5.20;82.80
48936;DHT22;34745;52.276;10.528;2023-02-01T05:31:34;5.20;99.90
48936;DHT22;34745;52.276;10.528;2023-02-01T05:34:01;5.20;99.90
48936;DHT22;34745;52.276;10.528;2023-02-01T05:36:28;5.10;99.90
48936;DHT22;34745;52.276;10.528;2023-02-01T05:38:55;5.10;99.90
48936;DHT22;34745;52.276;10.528;2023-02-01T05:41:23;4.90;99.90
48936;DHT22;34745;52.276;10.528;2023-02-01T05:43:50;4.80;99.90
48936;DHT22;34745;52.276;10.528;2023-02-01T05:46:17;4.70;99.90
48936;DHT22;34745;52.276;10.528;2023-02-01T05:48:46;4.70;99.90
48936;DHT22;34745;52.276;10.528;2023-02-01T05:51:13;4.60;99.90
48936;DHT22;34745;52.276;10.528;2023-02-01T05:53:40;4.60;99.90
48936;DHT22;34745;52.276;10.528;2023-02-01T05:56:08;4.50;99.90
48936;DHT22;34745;52.276;10.528;2023-02-01T05:58:35;4.50;99.90
48936;DHT22;34745;52.276;10.528;2023-02-01T06:01:03;4.50;99.90
48936;DHT22;34745;52.276;10.528;2023-02-01T06:03:30;4.40;99.90
48936;DHT22;34745;52.276;10.528;2023-02-01T06:05:58;4.40;99.90
48936;DHT22;34745;52.276;10.528;2023-02-01T06:08:27;4.40;99.90
48936;DHT22;34745;52.276;10.528;2023-02-01T06:10:59;4.40;99.90
48936;DHT22;34745;52.276;10.528;2023-02-01T06:13:26;4.40;99.90
48936;DHT22;34745;52.276;10.528;2023-02-01T06:15:53;4.40;99.90
48936;DHT22;34745;52.276;10.528;2023-02-01T06:18:20;4.50;99.90
48936;DHT22;34745;52.276;10.528;2023-02-01T06:20:52;4.50;99.90
48936;DHT22;34745;52.276;10.528;2023-02-01T06:23:21;4.50;99.90
48936;DHT22;34745;52.276;10.528;2023-02-01T06:25:51;4.50;99.90
48936;DHT22;34745;52.276;10.528;2023-02-01T06:28:19;4.50;99.90
48936;DHT22;34745;52.276;10.528;2023-02-01T06:30:46;4.60;99.90
48936;DHT22;34745;52.276;10.528;2023-02-01T06:33:13;4.60;99.90
48936;DHT22;34745;52.276;10.528;2023-02-01T06:35:42;4.70;99.90
48936;DHT22;34745;52.276;10.528;2023-02-01T06:38:11;4.70;99.90
48936;DHT22;34745;52.276;10.528;2023-02-01T06:40:40;4.80;99.90
48936;DHT22;34745;52.276;10.528;2023-02-01T06:43:08;4.80;99.90
48936;DHT22;34745;52.276;10.528;2023-02-01T06:45:35;4.80;99.90
48936;DHT22;34745;52.276;10.528;2023-02-01T06:48:03;4.90;99.90
48936;DHT22;34745;52.276;10.528;2023-02-01T06:50:30;4.90;99.90
48936;DHT22;34745;52.276;10.528;2023-02-01T06:52:57;4.90;99.90
48936;DHT22;34745;52.276;10.528;2023-02-01T06:55:24;4.90;99.90
48936;DHT22;34745;52.276;10.528;2023-02-01T06:57:56;4.70;99.90
48936;DHT22;34745;52.276;10.528;2023-02-01T07:00:23;4.60;99.90
48936;DHT22;34745;52.276;10.528;2023-02-01T07:02:51;4.60;99.90
48936;DHT22;34745;52.276;10.528;2023-02-01T07:05:18;4.60;99.90
48936;DHT22;34745;52.276;10.528;2023-02-01T07:07:45;4.60;99.90
48936;DHT22;34745;52.276;10.528;2023-02-01T07:10:12;4.70;99.90
48936;DHT22;34745;52.276;10.528;2023-02-01T07:12:39;4.60;99.90
48936;DHT22;34745;52.276;10.528;2023-02-01T07:15:08;4.70;99.90
48936;DHT22;34745;52.276;10.528;2023-02-01T07:17:36;4.70;99.90
48936;DHT22;34745;52.276;10.528;2023-02-01T07:20:04;4.70;99.90
48936;DHT22;34745;52.276;10.528;2023-02-01T07:22:31;4.70;99.90
48936;DHT22;34745;52.276;10.528;2023-02-01T07:24:58;4.80;99.90
48936;DHT22;34745;52.276;10.528;2023-02-01T07:27:26;4.80;99.90
48936;DHT22;34745;52.276;10.528;2023-02-01T07:29:53;4.70;99.90
48936;DHT22;34745;52.276;10.528;2023-02-01T07:32:23;4.80;99.90
48936;DHT22;34745;52.276;10.528;2023-02-01T07:34:50;4.70;99.90
48936;DHT22;34745;52.276;10.528;2023-02-01T07:37:18;4.70;99.90
48936;DHT22;34745;52.276;10.528;2023-02-01T07:39:45;4.70;99.90
48936;DHT22;34745;52.276;10.528;2023-02-01T07:42:12;4.70;99.90
48936;DHT22;34745;52.276;10.528;2023-02-01T07:44:39;4.70;99.90
48936;DHT22;34745;52.276;10.528;2023-02-01T07:47:06;4.80;99.90
48936;DHT22;34745;52.276;10.528;2023-02-01T07:49:35;4.80;99.90
48936;DHT22;34745;52.276;10.528;2023-02-01T07:52:02;4.90;99.90
48936;DHT22;34745;52.276;10.528;2023-02-01T07:54:29;4.90;99.90
48936;DHT22;34745;52.276;10.528;2023-02-01T07:56:56;4.80;99.90
48936;DHT22;34745;52.276;10.528;2023-02-01T07:59:23;4.90;99.90
48936;DHT22;34745;52.276;10.528;2023-02-01T08:01:50;4.90;99.90
48936;DHT22;34745;52.276;10.528;2023-02-01T08:04:17;5.00;99.90
48936;DHT22;34745;52.276;10.528;2023-02-01T08:06:46;5.00;99.90
48936;DHT22;34745;52.276;10.528;2023-02-01T08:09:13;5.10;99.90
48936;DHT22;34745;52.276;10.528;2023-02-01T08:11:40;5.10;99.90
48936;DHT22;34745;52.276;10.528;2023-02-01T08:14:07;5.00;99.90
48936;DHT22;34745;52.276;10.528;2023-02-01T08:16:34;5.00;99.90
48936;DHT22;34745;52.276;10.528;2023-02-01T08:19:03;4.90;99.90
48936;DHT22;34745;52.276;10.528;2023-02-01T08:21:31;4.90;99.90
48936;DHT22;34745;52.276;10.528;2023-02-01T08:24:06;4.80;99.90
48936;DHT22;34745;52.276;10.528;2023-02-01T08:26:34;4.80;99.90
48936;DHT22;34745;52.276;10.528;2023-02-01T08:29:04;4.80;99.90
48936;DHT22;34745;52.276;10.528;2023-02-01T08:31:31;4.80;99.90
48936;DHT22;34745;52.276;10.528;2023-02-01T08:34:00;4.90;99.90
48936;DHT22;34745;52.276;10.528;2023-02-01T08:36:29;4.80;99.90
48936;DHT22;34745;52.276;10.528;2023-02-01T08:38:57;4.90;99.90
48936;DHT22;34745;52.276;10.528;2023-02-01T08:41:27;4.90;99.90
48936;DHT22;34745;52.276;10.528;2023-02-01T08:43:56;5.00;99.90
48936;DHT22;34745;52.276;10.528;2023-02-01T08:46:23;4.90;99.90
48936;DHT22;34745;52.276;10.528;2023-02-01T08:48:51;5.00;99.90
48936;DHT22;34745;52.276;10.528;2023-02-01T08:51:21;5.00;99.90
48936;DHT22;34745;52.276;10.528;2023-02-01T08:53:49;5.00;99.90
48936;DHT22;34745;52.276;10.528;2023-02-01T08:56:18;5.00;99.90
48936;DHT22;34745;52.276;10.528;2023-02-01T08:58:46;4.80;99.90
48936;DHT22;34745;52.276;10.528;2023-02-01T09:01:15;4.70;99.90
48936;DHT22;34745;52.276;10.528;2023-02-01T09:03:43;4.70;99.90
48936;DHT22;34745;52.276;10.528;2023-02-01T09:06:13;4.70;99.90
48936;DHT22;34745;52.276;10.528;2023-02-01T09:08:40;4.70;99.90
48936;DHT22;34745;52.276;10.528;2023-02-01T09:11:10;4.80;99.90
48936;DHT22;34745;52.276;10.528;2023-02-01T09:13:37;4.90;99.90
48936;DHT22;34745;52.276;10.528;2023-02-01T09:16:06;4.90;99.90
48936;DHT22;34745;52.276;10.528;2023-02-01T09:18:34;5.00;99.90
48936;DHT22;34745;52.276;10.528;2023-02-01T09:21:04;5.00;99.90
48936;DHT22;34745;52.276;10.528;2023-02-01T09:23:31;5.10;99.90
48936;DHT22;34745;52.276;10.528;2023-02-01T09:25:59;5.00;99.90
48936;DHT22;34745;52.276;10.528;2023-02-01T09:28:26;5.20;99.90
48936;DHT22;34745;52.276;10.528;2023-02-01T09:30:55;5.30;99.90
48936;DHT22;34745;52.276;10.528;2023-02-01T09:33:24;5.40;99.90
48936;DHT22;34745;52.276;10.528;2023-02-01T09:35:55;5.50;99.90
48936;DHT22;34745;52.276;10.528;2023-02-01T09:38:23;5.60;99.90
48936;DHT22;34745;52.276;10.528;2023-02-01T09:40:52;5.70;99.90
48936;DHT22;34745;52.276;10.528;2023-02-01T09:43:29;5.70;99.90
48936;DHT22;34745;52.276;10.528;2023-02-01T09:46:03;5.90;99.90
48936;DHT22;34745;52.276;10.528;2023-02-01T09:48:38;6.00;99.90
48936;DHT22;34745;52.276;10.528;2023-02-01T09:51:13;6.10;99.90
48936;DHT22;34745;52.276;10.528;2023-02-01T09:53:44;6.10;99.90
48936;DHT22;34745;52.276;10.528;2023-02-01T09:56:13;6.20;96.00
48936;DHT22;34745;52.276;10.528;2023-02-01T09:58:42;6.20;83.50
48936;DHT22;34745;52.276;10.528;2023-02-01T10:01:16;6.30;82.80
48936;DHT22;34745;52.276;10.528;2023-02-01T10:03:46;6.40;59.30
48936;DHT22;34745;52.276;10.528;2023-02-01T10:06:23;6.40;69.40
48936;DHT22;34745;52.276;10.528;2023-02-01T10:11:54;6.50;31.30
48936;DHT22;34745;52.276;10.528;2023-02-01T10:14:42;6.50;20.70
48936;DHT22;34745;52.276;10.528;2023-02-01T10:17:19;6.50;11.70
48936;DHT22;34745;52.276;10.528;2023-02-01T10:19:57;6.50;1.00
48936;DHT22;34745;52.276;10.528;2023-02-01T10:22:35;6.50;11.90
48936;DHT22;34745;52.276;10.528;2023-02-01T10:25:28;6.50;4.80
48936;DHT22;34745;52.276;10.528;2023-02-01T10:28:00;6.50;1.00
48936;DHT22;34745;52.276;10.528;2023-02-01T10:30:31;6.50;1.00
48936;DHT22;34745;52.276;10.528;2023-02-01T10:33:12;6.50;1.00
48936;DHT22;34745;52.276;10.528;2023-02-01T10:35:44;6.60;1.00
48936;DHT22;34745;52.276;10.528;2023-02-01T10:38:18;6.60;1.00
48936;DHT22;34745;52.276;10.528;2023-02-01T10:40:47;6.70;1.00
48936;DHT22;34745;52.276;10.528;2023-02-01T10:43:14;6.80;1.00
48936;DHT22;34745;52.276;10.528;2023-02-01T10:45:42;6.80;1.00
48936;DHT22;34745;52.276;10.528;2023-02-01T10:48:09;6.90;1.00
48936;DHT22;34745;52.276;10.528;2023-02-01T10:50:38;7.00;1.00
48936;DHT22;34745;52.276;10.528;2023-02-01T10:53:12;7.00;1.00
48936;DHT22;34745;52.276;10.528;2023-02-01T10:55:46;7.00;1.00
48936;DHT22;34745;52.276;10.528;2023-02-01T10:58:16;7.10;1.00
48936;DHT22;34745;52.276;10.528;2023-02-01T11:00:48;7.10;1.00
48936;DHT22;34745;52.276;10.528;2023-02-01T11:03:41;7.00;1.00
48936;DHT22;34745;52.276;10.528;2023-02-01T11:06:13;7.00;1.00
48936;DHT22;34745;52.276;10.528;2023-02-01T11:08:48;7.00;1.00
48936;DHT22;34745;52.276;10.528;2023-02-01T11:11:16;7.00;1.00
48936;DHT22;34745;52.276;10.528;2023-02-01T11:13:52;6.90;1.00
48936;DHT22;34745;52.276;10.528;2023-02-01T11:16:20;6.90;1.00
48936;DHT22;34745;52.276;10.528;2023-02-01T11:18:53;6.80;1.00
48936;DHT22;34745;52.276;10.528;2023-02-01T11:21:21;6.80;1.00
48936;DHT22;34745;52.276;10.528;2023-02-01T11:23:50;6.80;1.00
48936;DHT22;34745;52.276;10.528;2023-02-01T11:26:21;6.80;1.00
48936;DHT22;34745;52.276;10.528;2023-02-01T11:28:54;6.90;1.00
48936;DHT22;34745;52.276;10.528;2023-02-01T11:31:24;6.90;1.00
48936;DHT22;34745;52.276;10.528;2023-02-01T11:33:53;6.90;1.00
48936;DHT22;34745;52.276;10.528;2023-02-01T11:36:23;6.90;1.00
48936;DHT22;34745;52.276;10.528;2023-02-01T11:39:08;6.80;1.00
48936;DHT22;34745;52.276;10.528;2023-02-01T11:41:41;6.90;1.00
48936;DHT22;34745;52.276;10.528;2023-02-01T11:44:21;6.90;1.00
48936;DHT22;34745;52.276;10.528;2023-02-01T11:46:48;6.90;1.00
48936;DHT22;34745;52.276;10.528;2023-02-01T11:49:21;6.90;1.00
48936;DHT22;34745;52.276;10.528;2023-02-01T11:52:02;6.90;1.00
48936;DHT22;34745;52.276;10.528;2023-02-01T11:54:44;6.90;1.00
48936;DHT22;34745;52.276;10.528;2023-02-01T11:57:24;6.90;1.00
48936;DHT22;34745;52.276;10.528;2023-02-01T12:00:06;7.00;1.00
48936;DHT22;34745;52.276;10.528;2023-02-01T12:03:10;7.10;1.00
48936;DHT22;34745;52.276;10.528;2023-02-01T12:05:47;7.20;1.00
48936;DHT22;34745;52.276;10.528;2023-02-01T12:08:27;7.20;1.00
48936;DHT22;34745;52.276;10.528;2023-02-01T12:11:10;7.20;1.00
48936;DHT22;34745;52.276;10.528;2023-02-01T12:13:48;7.10;1.00
48936;DHT22;34745;52.276;10.528;2023-02-01T12:16:23;7.00;1.00
48936;DHT22;34745;52.276;10.528;2023-02-01T12:19:11;7.10;1.00
48936;DHT22;34745;52.276;10.528;2023-02-01T12:21:57;7.50;1.00
48936;DHT22;34745;52.276;10.528;2023-02-01T12:27:44;7.30;1.00
48936;DHT22;34745;52.276;10.528;2023-02-01T12:30:25;7.60;1.00
48936;DHT22;34745;52.276;10.528;2023-02-01T12:33:04;7.40;1.00
48936;DHT22;34745;52.276;10.528;2023-02-01T12:35:54;7.30;1.00
48936;DHT22;34745;52.276;10.528;2023-02-01T12:38:36;7.30;1.00
48936;DHT22;34745;52.276;10.528;2023-02-01T12:41:16;7.20;1.00
48936;DHT22;34745;52.276;10.528;2023-02-01T12:43:52;7.10;1.00
48936;DHT22;34745;52.276;10.528;2023-02-01T12:46:25;7.00;1.00
48936;DHT22;34745;52.276;10.528;2023-02-01T12:48:57;6.90;1.00
48936;DHT22;34745;52.276;10.528;2023-02-01T12:51:29;6.80;1.00
48936;DHT22;34745;52.276;10.528;2023-02-01T12:54:00;6.80;1.00
48936;DHT22;34745;52.276;10.528;2023-02-01T12:56:32;6.70;1.00
48936;DHT22;34745;52.276;10.528;2023-02-01T12:59:07;6.80;1.00
48936;DHT22;34745;52.276;10.528;2023-02-01T13:01:40;6.60;1.00
48936;DHT22;34745;52.276;10.528;2023-02-01T13:04:13;6.50;1.00
48936;DHT22;34745;52.276;10.528;2023-02-01T13:06:45;6.40;1.00
48936;DHT22;34745;52.276;10.528;2023-02-01T13:09:19;6.40;13.60
48936;DHT22;34745;52.276;10.528;2023-02-01T13:11:49;6.30;17.80
48936;DHT22;34745;52.276;10.528;2023-02-01T13:14:26;6.10;80.70
48936;DHT22;34745;52.276;10.528;2023-02-01T13:16:59;5.90;81.60
48936;DHT22;34745;52.276;10.528;2023-02-01T13:19:32;5.80;99.90
48936;DHT22;34745;52.276;10.528;2023-02-01T13:22:05;5.70;99.90
48936;DHT22;34745;52.276;10.528;2023-02-01T13:24:41;5.60;99.90
48936;DHT22;34745;52.276;10.528;2023-02-01T13:27:11;5.50;99.90
48936;DHT22;34745;52.276;10.528;2023-02-01T13:29:47;5.50;99.90
48936;DHT22;34745;52.276;10.528;2023-02-01T13:35:58;5.70;99.90
48936;DHT22;34745;52.276;10.528;2023-02-01T13:39:01;5.70;99.90
48936;DHT22;34745;52.276;10.528;2023-02-01T13:41:31;5.70;99.90
48936;DHT22;34745;52.276;10.528;2023-02-01T13:44:00;5.60;99.90
48936;DHT22;34745;52.276;10.528;2023-02-01T13:46:30;5.70;99.90
48936;DHT22;34745;52.276;10.528;2023-02-01T13:49:05;5.50;99.90
48936;DHT22;34745;52.276;10.528;2023-02-01T13:51:35;5.40;99.90
48936;DHT22;34745;52.276;10.528;2023-02-01T13:54:04;5.40;99.90
48936;DHT22;34745;52.276;10.528;2023-02-01T13:56:41;5.10;99.90
48936;DHT22;34745;52.276;10.528;2023-02-01T13:59:44;4.80;99.90
48936;DHT22;34745;52.276;10.528;2023-02-01T14:02:46;4.70;99.90
48936;DHT22;34745;52.276;10.528;2023-02-01T14:08:23;4.20;99.90
48936;DHT22;34745;52.276;10.528;2023-02-01T14:10:53;4.10;99.90
48936;DHT22;34745;52.276;10.528;2023-02-01T14:13:26;3.90;99.90
48936;DHT22;34745;52.276;10.528;2023-02-01T14:16:21;3.70;99.90
48936;DHT22;34745;52.276;10.528;2023-02-01T14:18:58;3.70;99.90
48936;DHT22;34745;52.276;10.528;2023-02-01T14:21:28;3.60;99.90
48936;DHT22;34745;52.276;10.528;2023-02-01T14:23:58;3.60;99.90
48936;DHT22;34745;52.276;10.528;2023-02-01T14:26:40;3.70;99.90
48936;DHT22;34745;52.276;10.528;2023-02-01T14:29:26;3.80;99.90
48936;DHT22;34745;52.276;10.528;2023-02-01T14:32:02;3.70;99.90
48936;DHT22;34745;52.276;10.528;2023-02-01T14:34:39;3.60;99.90
48936;DHT22;34745;52.276;10.528;2023-02-01T14:37:22;3.40;99.90
48936;DHT22;34745;52.276;10.528;2023-02-01T14:39:56;3.30;99.90
48936;DHT22;34745;52.276;10.528;2023-02-01T14:42:28;3.30;99.90
48936;DHT22;34745;52.276;10.528;2023-02-01T14:48:41;3.30;99.90
48936;DHT22;34745;52.276;10.528;2023-02-01T14:51:13;3.30;99.90
48936;DHT22;34745;52.276;10.528;2023-02-01T14:53:41;3.30;99.90
48936;DHT22;34745;52.276;10.528;2023-02-01T14:56:14;3.30;99.90
48936;DHT22;34745;52.276;10.528;2023-02-01T14:58:45;3.30;99.90
48936;DHT22;34745;52.276;10.528;2023-02-01T15:01:18;3.30;99.90
48936;DHT22;34745;52.276;10.528;2023-02-01T15:03:58;3.30;99.90
48936;DHT22;34745;52.276;10.528;2023-02-01T15:06:36;3.30;99.90
48936;DHT22;34745;52.276;10.528;2023-02-01T15:09:09;3.20;99.90
48936;DHT22;34745;52.276;10.528;2023-02-01T15:11:55;3.20;99.90
48936;DHT22;34745;52.276;10.528;2023-02-01T15:14:22;3.20;99.90
48936;DHT22;34745;52.276;10.528;2023-02-01T15:16:49;3.20;99.90
48936;DHT22;34745;52.276;10.528;2023-02-01T15:19:24;3.20;99.90
48936;DHT22;34745;52.276;10.528;2023-02-01T15:21:53;3.20;99.90
48936;DHT22;34745;52.276;10.528;2023-02-01T15:24:23;3.20;99.90
48936;DHT22;34745;52.276;10.528;2023-02-01T15:26:51;3.10;99.90
48936;DHT22;34745;52.276;10.528;2023-02-01T15:29:21;3.10;99.90
48936;DHT22;34745;52.276;10.528;2023-02-01T15:31:51;3.10;99.90
48936;DHT22;34745;52.276;10.528;2023-02-01T15:34:20;3.10;99.90
48936;DHT22;34745;52.276;10.528;2023-02-01T15:36:47;3.10;99.90
48936;DHT22;34745;52.276;10.528;2023-02-01T15:39:30;3.20;99.90
48936;DHT22;34745;52.276;10.528;2023-02-01T15:42:01;3.20;99.90
48936;DHT22;34745;52.276;10.528;2023-02-01T15:44:34;3.10;99.90
48936;DHT22;34745;52.276;10.528;2023-02-01T15:47:15;3.20;99.90
48936;DHT22;34745;52.276;10.528;2023-02-01T15:49:45;3.20;99.90
48936;DHT22;34745;52.276;10.528;2023-02-01T15:52:22;3.10;99.90
48936;DHT22;34745;52.276;10.528;2023-02-01T15:54:54;3.10;99.90
48936;DHT22;34745;52.276;10.528;2023-02-01T15:57:24;3.10;99.90
48936;DHT22;34745;52.276;10.528;2023-02-01T15:59:58;3.10;99.90
48936;DHT22;34745;52.276;10.528;2023-02-01T16:02:32;3.10;99.90
48936;DHT22;34745;52.276;10.528;2023-02-01T16:05:01;3.10;99.90
48936;DHT22;34745;52.276;10.528;2023-02-01T16:07:29;3.20;99.90
48936;DHT22;34745;52.276;10.528;2023-02-01T16:10:00;3.20;99.90
48936;DHT22;34745;52.276;10.528;2023-02-01T16:12:44;3.20;99.90
48936;DHT22;34745;52.276;10.528;2023-02-01T16:15:14;3.30;99.90
48936;DHT22;34745;52.276;10.528;2023-02-01T16:17:41;3.30;99.90
48936;DHT22;34745;52.276;10.528;2023-02-01T16:20:10;3.30;99.90
48936;DHT22;34745;52.276;10.528;2023-02-01T16:22:37;3.30;99.90